sensor_id;sensor_type;location;lat;lon;timestamp;pressure;altitude;pressure_sealevel;temperature;humidity
30021;BME280;16861;52.294;7.760;2023-04-15T00:01:05;99172.06;;;10.30;56.16
30021;BME280;16861;52.294;7.760;2023-04-15T00:03:32;99169.44;;;10.30;55.68
30021;BME280;16861;52.294;7.760;2023-04-15T00:06:00;99170.34;;;10.29;56.03
30021;BME280;16861;52.294;7.760;2023-04-15T00:08:26;99168.69;;;10.28;56.15
30021;BME280;16861;52.294;7.760;2023-04-15T00:10:54;99158.25;;;10.27;56.16
30021;BME280;16861;52.294;7.760;2023-04-15T00:13:20;99168.88;;;10.25;56.08
30021;BME280;16861;52.294;7.760;2023-04-15T00:15:46;99165.50;;;10.23;56.18
30021;BME280;16861;52.294;7.760;2023-04-15T00:18:13;99164.66;;;10.23;56.31
30021;BME280;16861;52.294;7.760;2023-04-15T00:20:39;99155.19;;;10.20;56.12
30021;BME280;16861;52.294;7.760;2023-04-15T00:23:06;99161.28;;;10.21;56.07
30021;BME280;16861;52.294;7.760;2023-04-15T00:25:33;99166.66;;;10.19;56.45
30021;BME280;16861;52.294;7.760;2023-04-15T00:27:59;99160.66;;;10.17;56.51
30021;BME280;16861;52.294;7.760;2023-04-15T00:30:25;99163.28;;;10.17;56.27
30021;BME280;16861;52.294;7.760;2023-04-15T00:32:52;99159.03;;;10.14;56.37
30021;BME280;16861;52.294;7.760;2023-04-15T00:35:19;99160.94;;;10.12;56.53
30021;BME280;16861;52.294;7.760;2023-04-15T00:37:45;99154.09;;;10.10;56.70
30021;BME280;16861;52.294;7.760;2023-04-15T00:40:12;99148.22;;;10.06;56.91
30021;BME280;16861;52.294;7.760;2023-04-15T00:42:39;99146.50;;;10.05;56.80
30021;BME280;16861;52.294;7.760;2023-04-15T00:45:06;99146.59;;;10.03;56.68
30021;BME280;16861;52.294;7.760;2023-04-15T00:47:35;99145.88;;;10.01;56.96
30021;BME280;16861;52.294;7.760;2023-04-15T00:50:03;99148.59;;;10.00;56.83
30021;BME280;16861;52.294;7.760;2023-04-15T00:52:30;99152.25;;;9.97;56.82
30021;BME280;16861;52.294;7.760;2023-04-15T00:54:57;99151.41;;;9.97;56.87
30021;BME280;16861;52.294;7.760;2023-04-15T00:57:24;99156.78;;;9.95;57.11
30021;BME280;16861;52.294;7.760;2023-04-15T00:59:52;99151.72;;;9.92;57.08
30021;BME280;16861;52.294;7.760;2023-04-15T01:02:19;99156.22;;;9.90;57.32
30021;BME280;16861;52.294;7.760;2023-04-15T01:04:46;99151.28;;;9.85;57.22
30021;BME280;16861;52.294;7.760;2023-04-15T01:07:12;99154.00;;;9.84;57.28
30021;BME280;16861;52.294;7.760;2023-04-15T01:09:40;99151.47;;;9.82;57.41
30021;BME280;16861;52.294;7.760;2023-04-15T01:12:09;99148.09;;;9.80;57.47
30021;BME280;16861;52.294;7.760;2023-04-15T01:14:37;99160.28;;;9.81;57.41
30021;BME280;16861;52.294;7.760;2023-04-15T01:17:03;99149.88;;;9.80;57.46
30021;BME280;16861;52.294;7.760;2023-04-15T01:19:30;99160.38;;;9.80;57.70
30021;BME280;16861;52.294;7.760;2023-04-15T01:21:56;99159.63;;;9.77;57.63
30021;BME280;16861;52.294;7.760;2023-04-15T01:24:25;99159.75;;;9.76;57.50
30021;BME280;16861;52.294;7.760;2023-04-15T01:26:52;99169.41;;;9.75;57.64
30021;BME280;16861;52.294;7.760;2023-04-15T01:29:19;99152.91;;;9.73;57.61
30021;BME280;16861;52.294;7.760;2023-04-15T01:31:53;99160.97;;;9.70;58.09
30021;BME280;16861;52.294;7.760;2023-04-15T01:34:20;99161.69;;;9.72;57.90
30021;BME280;16861;52.294;7.760;2023-04-15T01:36:47;99160.88;;;9.72;58.01
30021;BME280;16861;52.294;7.760;2023-04-15T01:39:14;99163.50;;;9.72;58.00
30021;BME280;16861;52.294;7.760;2023-04-15T01:41:40;99160.03;;;9.71;58.17
30021;BME280;16861;52.294;7.760;2023-04-15T01:44:07;99157.31;;;9.73;57.85
30021;BME280;16861;52.294;7.760;2023-04-15T01:46:34;99160.88;;;9.72;57.99
30021;BME280;16861;52.294;7.760;2023-04-15T01:49:01;99165.28;;;9.71;57.81
30021;BME280;16861;52.294;7.760;2023-04-15T01:51:27;99166.31;;;9.69;57.89
30021;BME280;16861;52.294;7.760;2023-04-15T01:53:54;99159.38;;;9.68;58.00
30021;BME280;16861;52.294;7.760;2023-04-15T01:56:22;99163.88;;;9.65;58.07
30021;BME280;16861;52.294;7.760;2023-04-15T01:58:51;99165.78;;;9.63;58.15
30021;BME280;16861;52.294;7.760;2023-04-15T02:01:18;99164.19;;;9.61;57.95
30021;BME280;16861;52.294;7.760;2023-04-15T02:03:45;99163.41;;;9.59;58.30
30021;BME280;16861;52.294;7.760;2023-04-15T02:06:13;99162.69;;;9.57;58.23
30021;BME280;16861;52.294;7.760;2023-04-15T02:08:39;99165.41;;;9.55;58.28
30021;BME280;16861;52.294;7.760;2023-04-15T02:11:06;99166.44;;;9.52;58.42
30021;BME280;16861;52.294;7.760;2023-04-15T02:13:32;99166.44;;;9.52;58.50
30021;BME280;16861;52.294;7.760;2023-04-15T02:15:58;99164.75;;;9.51;58.44
30021;BME280;16861;52.294;7.760;2023-04-15T02:18:25;99171.88;;;9.49;58.77
30021;BME280;16861;52.294;7.760;2023-04-15T02:20:51;99164.94;;;9.48;58.60
30021;BME280;16861;52.294;7.760;2023-04-15T02:23:18;99164.94;;;9.48;58.92
30021;BME280;16861;52.294;7.760;2023-04-15T02:25:44;99165.88;;;9.47;58.86
30021;BME280;16861;52.294;7.760;2023-04-15T02:28:20;99166.81;;;9.46;58.79
30021;BME280;16861;52.294;7.760;2023-04-15T02:30:48;99177.41;;;9.45;58.75
30021;BME280;16861;52.294;7.760;2023-04-15T02:33:17;99180.97;;;9.44;58.90
30021;BME280;16861;52.294;7.760;2023-04-15T02:35:44;99187.19;;;9.43;58.82
30021;BME280;16861;52.294;7.760;2023-04-15T02:38:11;99189.06;;;9.41;58.99
30021;BME280;16861;52.294;7.760;2023-04-15T02:40:37;99186.53;;;9.39;58.88
30021;BME280;16861;52.294;7.760;2023-04-15T02:43:04;99192.69;;;9.38;59.22
30021;BME280;16861;52.294;7.760;2023-04-15T02:45:32;99190.19;;;9.36;59.11
30021;BME280;16861;52.294;7.760;2023-04-15T02:47:58;99199.06;;;9.34;59.20
30021;BME280;16861;52.294;7.760;2023-04-15T02:50:29;99200.03;;;9.33;59.36
30021;BME280;16861;52.294;7.760;2023-04-15T02:52:56;99200.09;;;9.31;59.20
30021;BME280;16861;52.294;7.760;2023-04-15T02:55:23;99198.44;;;9.30;59.24
30021;BME280;16861;52.294;7.760;2023-04-15T02:57:49;99201.16;;;9.29;59.45
30021;BME280;16861;52.294;7.760;2023-04-15T03:00:15;99195.97;;;9.27;59.37
30021;BME280;16861;52.294;7.760;2023-04-15T03:02:44;99199.56;;;9.26;59.63
30021;BME280;16861;52.294;7.760;2023-04-15T03:05:12;99198.72;;;9.25;59.49
30021;BME280;16861;52.294;7.760;2023-04-15T03:07:39;99196.19;;;9.24;59.33
30021;BME280;16861;52.294;7.760;2023-04-15T03:10:08;99184.09;;;9.21;59.17
30021;BME280;16861;52.294;7.760;2023-04-15T03:12:35;99188.56;;;9.19;59.52
30021;BME280;16861;52.294;7.760;2023-04-15T03:15:02;99194.84;;;9.17;59.54
30021;BME280;16861;52.294;7.760;2023-04-15T03:17:28;99195.03;;;9.13;59.73
30021;BME280;16861;52.294;7.760;2023-04-15T03:19:55;99186.41;;;9.11;59.77
30021;BME280;16861;52.294;7.760;2023-04-15T03:22:21;99186.59;;;9.08;59.55
30021;BME280;16861;52.294;7.760;2023-04-15T03:24:47;99185.78;;;9.08;59.97
30021;BME280;16861;52.294;7.760;2023-04-15T03:27:14;99188.56;;;9.05;59.57
30021;BME280;16861;52.294;7.760;2023-04-15T03:29:40;99182.56;;;9.03;59.67
30021;BME280;16861;52.294;7.760;2023-04-15T03:32:06;99184.44;;;9.01;59.87
30021;BME280;16861;52.294;7.760;2023-04-15T03:34:33;99182.00;;;8.97;59.56
30021;BME280;16861;52.294;7.760;2023-04-15T03:36:59;99185.66;;;8.95;59.75
30021;BME280;16861;52.294;7.760;2023-04-15T03:39:26;99184.06;;;8.92;59.91
30021;BME280;16861;52.294;7.760;2023-04-15T03:41:52;99179.91;;;8.88;59.61
30021;BME280;16861;52.294;7.760;2023-04-15T03:44:18;99185.34;;;8.85;59.92
30021;BME280;16861;52.294;7.760;2023-04-15T03:46:45;99180.38;;;8.80;59.79
30021;BME280;16861;52.294;7.760;2023-04-15T03:49:12;99186.66;;;8.78;59.95
30021;BME280;16861;52.294;7.760;2023-04-15T03:51:39;99181.56;;;8.75;59.98
30021;BME280;16861;52.294;7.760;2023-04-15T03:54:05;99173.06;;;8.71;60.12
30021;BME280;16861;52.294;7.760;2023-04-15T03:56:32;99180.16;;;8.69;60.23
30021;BME280;16861;52.294;7.760;2023-04-15T03:58:58;99180.25;;;8.67;60.45
30021;BME280;16861;52.294;7.760;2023-04-15T04:01:25;99185.56;;;8.66;60.22
30021;BME280;16861;52.294;7.760;2023-04-15T04:03:52;99186.59;;;8.63;60.44
30021;BME280;16861;52.294;7.760;2023-04-15T04:06:19;99179.59;;;8.64;60.76
30021;BME280;16861;52.294;7.760;2023-04-15T04:08:45;99184.06;;;8.62;60.88
30021;BME280;16861;52.294;7.760;2023-04-15T04:11:12;99177.03;;;8.62;60.58
30021;BME280;16861;52.294;7.760;2023-04-15T04:13:38;99177.03;;;8.62;61.19
30021;BME280;16861;52.294;7.760;2023-04-15T04:16:05;99182.28;;;8.62;60.77
30021;BME280;16861;52.294;7.760;2023-04-15T04:18:31;99177.91;;;8.63;60.86
30021;BME280;16861;52.294;7.760;2023-04-15T04:20:58;99175.28;;;8.63;61.12
30021;BME280;16861;52.294;7.760;2023-04-15T04:23:26;99183.97;;;8.63;60.97
30021;BME280;16861;52.294;7.760;2023-04-15T04:25:52;99183.88;;;8.65;61.15
30021;BME280;16861;52.294;7.760;2023-04-15T04:30:56;99185.56;;;8.66;61.01
30021;BME280;16861;52.294;7.760;2023-04-15T04:33:23;99196.91;;;8.66;60.79
30021;BME280;16861;52.294;7.760;2023-04-15T04:35:50;99200.41;;;8.67;61.03
30021;BME280;16861;52.294;7.760;2023-04-15T04:38:16;99201.31;;;8.66;60.73
30021;BME280;16861;52.294;7.760;2023-04-15T04:40:43;99204.78;;;8.66;60.75
30021;BME280;16861;52.294;7.760;2023-04-15T04:43:09;99211.81;;;8.66;60.94
30021;BME280;16861;52.294;7.760;2023-04-15T04:45:36;99216.31;;;8.64;60.98
30021;BME280;16861;52.294;7.760;2023-04-15T04:48:03;99213.69;;;8.64;61.19
30021;BME280;16861;52.294;7.760;2023-04-15T04:50:33;99222.41;;;8.64;61.17
30021;BME280;16861;52.294;7.760;2023-04-15T04:53:00;99225.13;;;8.63;61.22
30021;BME280;16861;52.294;7.760;2023-04-15T04:55:27;99226.81;;;8.64;60.81
30021;BME280;16861;52.294;7.760;2023-04-15T04:57:54;99223.34;;;8.63;61.14
30021;BME280;16861;52.294;7.760;2023-04-15T05:00:20;99220.78;;;8.62;61.29
30021;BME280;16861;52.294;7.760;2023-04-15T05:02:48;99236.53;;;8.62;61.35
30021;BME280;16861;52.294;7.760;2023-04-15T05:05:14;99230.53;;;8.59;61.27
30021;BME280;16861;52.294;7.760;2023-04-15T05:07:41;99234.03;;;8.60;61.22
30021;BME280;16861;52.294;7.760;2023-04-15T05:10:08;99237.47;;;8.60;61.74
30021;BME280;16861;52.294;7.760;2023-04-15T05:12:35;99245.34;;;8.60;61.49
30021;BME280;16861;52.294;7.760;2023-04-15T05:15:03;99233.91;;;8.62;61.77
30021;BME280;16861;52.294;7.760;2023-04-15T05:17:30;99240.88;;;8.63;61.62
30021;BME280;16861;52.294;7.760;2023-04-15T05:19:58;99244.22;;;8.65;61.83
30021;BME280;16861;52.294;7.760;2023-04-15T05:22:25;99247.50;;;8.68;62.01
30021;BME280;16861;52.294;7.760;2023-04-15T05:24:52;99251.78;;;8.71;62.10
30021;BME280;16861;52.294;7.760;2023-04-15T05:27:18;99251.50;;;8.76;61.63
30021;BME280;16861;52.294;7.760;2023-04-15T05:29:45;99252.16;;;8.79;61.81
30021;BME280;16861;52.294;7.760;2023-04-15T05:32:12;99259.84;;;8.82;61.72
30021;BME280;16861;52.294;7.760;2023-04-15T05:34:38;99257.91;;;8.86;61.93
30021;BME280;16861;52.294;7.760;2023-04-15T05:37:05;99260.34;;;8.89;62.27
30021;BME280;16861;52.294;7.760;2023-04-15T05:39:32;99260.09;;;8.94;62.16
30021;BME280;16861;52.294;7.760;2023-04-15T05:41:59;99257.28;;;8.97;62.27
30021;BME280;16861;52.294;7.760;2023-04-15T05:44:26;99266.66;;;9.01;62.19
30021;BME280;16861;52.294;7.760;2023-04-15T05:46:52;99262.09;;;9.05;62.10
30021;BME280;16861;52.294;7.760;2023-04-15T05:49:18;99273.25;;;9.08;62.06
30021;BME280;16861;52.294;7.760;2023-04-15T05:51:46;99273.91;;;9.12;62.15
30021;BME280;16861;52.294;7.760;2023-04-15T05:54:13;99276.34;;;9.15;62.24
30021;BME280;16861;52.294;7.760;2023-04-15T05:56:40;99283.09;;;9.19;62.07
30021;BME280;16861;52.294;7.760;2023-04-15T05:59:06;99282.16;;;9.20;62.15
30021;BME280;16861;52.294;7.760;2023-04-15T06:01:34;99283.75;;;9.23;62.26
30021;BME280;16861;52.294;7.760;2023-04-15T06:04:00;99282.75;;;9.25;62.39
30021;BME280;16861;52.294;7.760;2023-04-15T06:06:27;99288.66;;;9.29;62.32
30021;BME280;16861;52.294;7.760;2023-04-15T06:08:54;99287.56;;;9.33;62.17
30021;BME280;16861;52.294;7.760;2023-04-15T06:11:21;99290.00;;;9.36;62.52
30021;BME280;16861;52.294;7.760;2023-04-15T06:13:47;99292.44;;;9.39;62.58
30021;BME280;16861;52.294;7.760;2023-04-15T06:16:14;99294.78;;;9.44;62.57
30021;BME280;16861;52.294;7.760;2023-04-15T06:18:41;99295.53;;;9.46;62.28
30021;BME280;16861;52.294;7.760;2023-04-15T06:21:07;99293.69;;;9.48;62.43
30021;BME280;16861;52.294;7.760;2023-04-15T06:23:35;99304.84;;;9.52;62.86
30021;BME280;16861;52.294;7.760;2023-04-15T06:26:02;99294.97;;;9.56;62.20
30021;BME280;16861;52.294;7.760;2023-04-15T06:28:29;99294.78;;;9.59;62.49
30021;BME280;16861;52.294;7.760;2023-04-15T06:30:55;99293.69;;;9.63;62.42
30021;BME280;16861;52.294;7.760;2023-04-15T06:33:22;99302.13;;;9.68;62.50
30021;BME280;16861;52.294;7.760;2023-04-15T06:35:48;99299.31;;;9.71;62.65
30021;BME280;16861;52.294;7.760;2023-04-15T06:38:15;99305.97;;;9.77;62.47
30021;BME280;16861;52.294;7.760;2023-04-15T06:40:42;99310.13;;;9.81;62.47
30021;BME280;16861;52.294;7.760;2023-04-15T06:43:08;99317.81;;;9.84;62.55
30021;BME280;16861;52.294;7.760;2023-04-15T06:45:35;99319.28;;;9.88;62.50
30021;BME280;16861;52.294;7.760;2023-04-15T06:48:01;99310.41;;;9.91;62.47
30021;BME280;16861;52.294;7.760;2023-04-15T06:50:28;99306.75;;;9.94;62.41
30021;BME280;16861;52.294;7.760;2023-04-15T06:52:55;99313.50;;;9.98;62.18
30021;BME280;16861;52.294;7.760;2023-04-15T06:55:22;99315.09;;;10.00;62.52
30021;BME280;16861;52.294;7.760;2023-04-15T06:57:49;99317.50;;;10.03;62.47
30021;BME280;16861;52.294;7.760;2023-04-15T07:00:15;99317.34;;;10.07;62.40
30021;BME280;16861;52.294;7.760;2023-04-15T07:02:43;99317.16;;;10.10;62.65
30021;BME280;16861;52.294;7.760;2023-04-15T07:05:10;99308.22;;;10.12;62.47
30021;BME280;16861;52.294;7.760;2023-04-15T07:07:36;99310.66;;;10.15;62.31
30021;BME280;16861;52.294;7.760;2023-04-15T07:10:14;99312.53;;;10.13;62.56
30021;BME280;16861;52.294;7.760;2023-04-15T07:12:42;99313.84;;;10.21;62.49
30021;BME280;16861;52.294;7.760;2023-04-15T07:15:09;99307.53;;;10.23;62.50
30021;BME280;16861;52.294;7.760;2023-04-15T07:17:36;99310.91;;;10.25;62.48
30021;BME280;16861;52.294;7.760;2023-04-15T07:20:03;99311.69;;;10.27;62.60
30021;BME280;16861;52.294;7.760;2023-04-15T07:22:30;99315.91;;;10.30;62.57
30021;BME280;16861;52.294;7.760;2023-04-15T07:24:59;99314.94;;;10.31;62.78
30021;BME280;16861;52.294;7.760;2023-04-15T07:27:26;99314.66;;;10.36;62.68
30021;BME280;16861;52.294;7.760;2023-04-15T07:29:53;99314.47;;;10.39;62.72
30021;BME280;16861;52.294;7.760;2023-04-15T07:32:20;99312.59;;;10.41;62.49
30021;BME280;16861;52.294;7.760;2023-04-15T07:34:46;99316.06;;;10.41;62.76
30021;BME280;16861;52.294;7.760;2023-04-15T07:37:13;99311.53;;;10.43;62.71
30021;BME280;16861;52.294;7.760;2023-04-15T07:39:40;99313.16;;;10.46;62.79
30021;BME280;16861;52.294;7.760;2023-04-15T07:42:07;99315.69;;;10.48;62.94
30021;BME280;16861;52.294;7.760;2023-04-15T07:44:36;99319.91;;;10.50;62.92
30021;BME280;16861;52.294;7.760;2023-04-15T07:47:03;99318.88;;;10.53;63.03
30021;BME280;16861;52.294;7.760;2023-04-15T07:49:29;99316.06;;;10.56;62.97
30021;BME280;16861;52.294;7.760;2023-04-15T07:51:56;99326.50;;;10.58;63.01
30021;BME280;16861;52.294;7.760;2023-04-15T07:54:25;99320.19;;;10.60;63.02
30021;BME280;16861;52.294;7.760;2023-04-15T07:56:52;99321.88;;;10.61;63.05
30021;BME280;16861;52.294;7.760;2023-04-15T07:59:19;99322.72;;;10.62;63.13
30021;BME280;16861;52.294;7.760;2023-04-15T08:01:46;99332.19;;;10.64;63.21
30021;BME280;16861;52.294;7.760;2023-04-15T08:04:13;99326.84;;;10.66;63.34
30021;BME280;16861;52.294;7.760;2023-04-15T08:06:40;99328.44;;;10.68;63.35
30021;BME280;16861;52.294;7.760;2023-04-15T08:09:06;99335.38;;;10.69;63.14
30021;BME280;16861;52.294;7.760;2023-04-15T08:11:33;99332.66;;;10.71;63.30
30021;BME280;16861;52.294;7.760;2023-04-15T08:14:00;99336.00;;;10.73;63.26
30021;BME280;16861;52.294;7.760;2023-04-15T08:16:27;99336.88;;;10.74;63.42
30021;BME280;16861;52.294;7.760;2023-04-15T08:18:55;99340.34;;;10.74;63.49
30021;BME280;16861;52.294;7.760;2023-04-15T08:21:22;99341.94;;;10.77;63.57
30021;BME280;16861;52.294;7.760;2023-04-15T08:23:55;99338.56;;;10.75;63.64
30021;BME280;16861;52.294;7.760;2023-04-15T08:26:22;99348.69;;;10.81;63.64
30021;BME280;16861;52.294;7.760;2023-04-15T08:28:48;99349.53;;;10.81;63.50
30021;BME280;16861;52.294;7.760;2023-04-15T08:31:16;99350.28;;;10.84;63.81
30021;BME280;16861;52.294;7.760;2023-04-15T08:33:43;99351.88;;;10.86;64.01
30021;BME280;16861;52.294;7.760;2023-04-15T08:36:09;99356.00;;;10.90;63.89
30021;BME280;16861;52.294;7.760;2023-04-15T08:38:36;99351.56;;;10.91;63.83
30021;BME280;16861;52.294;7.760;2023-04-15T08:41:06;99350.63;;;10.92;64.12
30021;BME280;16861;52.294;7.760;2023-04-15T08:43:34;99351.38;;;10.94;63.91
30021;BME280;16861;52.294;7.760;2023-04-15T08:46:05;99356.44;;;10.97;64.09
30021;BME280;16861;52.294;7.760;2023-04-15T08:48:32;99358.13;;;10.98;64.09
30021;BME280;16861;52.294;7.760;2023-04-15T08:51:01;99363.19;;;11.01;64.14
30021;BME280;16861;52.294;7.760;2023-04-15T08:53:28;99356.78;;;11.05;64.32
30021;BME280;16861;52.294;7.760;2023-04-15T08:55:56;99363.53;;;11.10;64.43
30021;BME280;16861;52.294;7.760;2023-04-15T08:58:25;99362.41;;;11.14;64.47
30021;BME280;16861;52.294;7.760;2023-04-15T09:00:52;99364.94;;;11.15;64.36
30021;BME280;16861;52.294;7.760;2023-04-15T09:03:19;99360.31;;;11.19;64.38
30021;BME280;16861;52.294;7.760;2023-04-15T09:05:49;99368.00;;;11.22;64.49
30021;BME280;16861;52.294;7.760;2023-04-15T09:08:18;99372.22;;;11.25;64.46
30021;BME280;16861;52.294;7.760;2023-04-15T09:10:45;99375.59;;;11.27;64.69
30021;BME280;16861;52.294;7.760;2023-04-15T09:13:11;99378.75;;;11.32;64.72
30021;BME280;16861;52.294;7.760;2023-04-15T09:15:39;99386.56;;;11.33;64.75
30021;BME280;16861;52.294;7.760;2023-04-15T09:18:05;99382.88;;;11.36;64.72
30021;BME280;16861;52.294;7.760;2023-04-15T09:20:41;99373.28;;;11.35;64.91
30021;BME280;16861;52.294;7.760;2023-04-15T09:23:12;99380.16;;;11.38;64.69
30021;BME280;16861;52.294;7.760;2023-04-15T09:25:40;99395.78;;;11.41;64.50
30021;BME280;16861;52.294;7.760;2023-04-15T09:28:10;99381.72;;;11.40;64.63
30021;BME280;16861;52.294;7.760;2023-04-15T09:30:37;99394.09;;;11.40;64.85
30021;BME280;16861;52.294;7.760;2023-04-15T09:33:03;99396.50;;;11.43;64.82
30021;BME280;16861;52.294;7.760;2023-04-15T09:35:34;99390.31;;;11.44;65.07
30021;BME280;16861;52.294;7.760;2023-04-15T09:38:04;99395.34;;;11.47;64.91
30021;BME280;16861;52.294;7.760;2023-04-15T09:40:36;99401.38;;;11.49;65.08
30021;BME280;16861;52.294;7.760;2023-04-15T09:43:04;99408.13;;;11.53;65.36
30021;BME280;16861;52.294;7.760;2023-04-15T09:45:34;99404.53;;;11.54;65.45
30021;BME280;16861;52.294;7.760;2023-04-15T09:48:24;99403.59;;;11.55;65.42
30021;BME280;16861;52.294;7.760;2023-04-15T09:51:00;99405.84;;;11.62;65.05
30021;BME280;16861;52.294;7.760;2023-04-15T09:53:27;99406.56;;;11.64;64.95
30021;BME280;16861;52.294;7.760;2023-04-15T09:56:02;99406.47;;;11.65;64.80
30021;BME280;16861;52.294;7.760;2023-04-15T09:58:30;99413.41;;;11.66;65.12
30021;BME280;16861;52.294;7.760;2023-04-15T10:00:59;99413.31;;;11.68;65.06
30021;BME280;16861;52.294;7.760;2023-04-15T10:03:30;99416.81;;;11.68;65.09
30021;BME280;16861;52.294;7.760;2023-04-15T10:06:02;99409.72;;;11.69;65.12
30021;BME280;16861;52.294;7.760;2023-04-15T10:08:33;99416.81;;;11.68;64.96
30021;BME280;16861;52.294;7.760;2023-04-15T10:11:09;99409.00;;;11.67;65.15
30021;BME280;16861;52.294;7.760;2023-04-15T10:13:37;99415.94;;;11.68;64.91
30021;BME280;16861;52.294;7.760;2023-04-15T10:16:06;99399.41;;;11.66;65.19
30021;BME280;16861;52.294;7.760;2023-04-15T10:18:48;99414.28;;;11.67;65.23
30021;BME280;16861;52.294;7.760;2023-04-15T10:21:17;99419.53;;;11.67;65.45
30021;BME280;16861;52.294;7.760;2023-04-15T10:23:44;99413.31;;;11.68;65.53
30021;BME280;16861;52.294;7.760;2023-04-15T10:26:11;99416.81;;;11.68;65.47
30021;BME280;16861;52.294;7.760;2023-04-15T10:28:40;99418.38;;;11.71;65.66
30021;BME280;16861;52.294;7.760;2023-04-15T10:31:08;99421.84;;;11.71;65.71
30021;BME280;16861;52.294;7.760;2023-04-15T10:33:38;99421.66;;;11.75;65.81
30021;BME280;16861;52.294;7.760;2023-04-15T10:36:05;99417.25;;;11.75;65.87
30021;BME280;16861;52.294;7.760;2023-04-15T10:38:40;99418.81;;;11.78;65.82
30021;BME280;16861;52.294;7.760;2023-04-15T10:41:24;99424.19;;;11.76;65.88
30021;BME280;16861;52.294;7.760;2023-04-15T10:43:53;99430.75;;;11.83;65.67
30021;BME280;16861;52.294;7.760;2023-04-15T10:49:10;99420.81;;;11.87;66.14
30021;BME280;16861;52.294;7.760;2023-04-15T10:51:40;99432.00;;;11.91;65.86
30021;BME280;16861;52.294;7.760;2023-04-15T10:54:12;99423.16;;;11.92;65.93
30021;BME280;16861;52.294;7.760;2023-04-15T10:56:50;99433.72;;;11.92;66.35
30021;BME280;16861;52.294;7.760;2023-04-15T10:59:17;99434.97;;;11.99;65.84
30021;BME280;16861;52.294;7.760;2023-04-15T11:01:56;99433.38;;;11.96;65.77
30021;BME280;16861;52.294;7.760;2023-04-15T11:04:57;99433.50;;;11.95;65.77
30021;BME280;16861;52.294;7.760;2023-04-15T11:12:39;99439.28;;;12.00;65.86
30021;BME280;16861;52.294;7.760;2023-04-15T11:17:59;99440.03;;;12.02;65.79
30021;BME280;16861;52.294;7.760;2023-04-15T11:20:33;99438.38;;;12.01;65.79
30021;BME280;16861;52.294;7.760;2023-04-15T11:23:00;99441.00;;;12.01;65.81
30021;BME280;16861;52.294;7.760;2023-04-15T11:25:41;99445.41;;;12.01;65.89
30021;BME280;16861;52.294;7.760;2023-04-15T11:28:08;99450.69;;;12.01;65.95
30021;BME280;16861;52.294;7.760;2023-04-15T11:30:36;99455.88;;;12.02;66.12
30021;BME280;16861;52.294;7.760;2023-04-15T11:33:05;99455.97;;;12.01;66.14
30021;BME280;16861;52.294;7.760;2023-04-15T11:35:32;99457.56;;;12.03;66.17
30021;BME280;16861;52.294;7.760;2023-04-15T11:38:12;99455.88;;;12.02;66.31
30021;BME280;16861;52.294;7.760;2023-04-15T11:40:40;99464.50;;;12.04;66.24
30021;BME280;16861;52.294;7.760;2023-04-15T11:43:18;99453.97;;;12.04;66.50
30021;BME280;16861;52.294;7.760;2023-04-15T11:48:17;99465.09;;;12.09;66.23
30021;BME280;16861;52.294;7.760;2023-04-15T11:50:44;99466.78;;;12.10;66.38
30021;BME280;16861;52.294;7.760;2023-04-15T11:53:12;99468.47;;;12.11;66.48
30021;BME280;16861;52.294;7.760;2023-04-15T11:55:47;99467.59;;;12.11;66.64
30021;BME280;16861;52.294;7.760;2023-04-15T12:00:56;99477.84;;;12.16;66.67
30021;BME280;16861;52.294;7.760;2023-04-15T12:03:30;99482.94;;;12.19;66.54
30021;BME280;16861;52.294;7.760;2023-04-15T12:11:21;99489.69;;;12.23;66.20
30021;BME280;16861;52.294;7.760;2023-04-15T12:13:54;99493.16;;;12.23;66.33
30021;BME280;16861;52.294;7.760;2023-04-15T12:16:23;99491.38;;;12.24;66.41
30021;BME280;16861;52.294;7.760;2023-04-15T12:18:51;99491.38;;;12.24;66.40
30021;BME280;16861;52.294;7.760;2023-04-15T12:21:20;99496.66;;;12.24;66.33
30021;BME280;16861;52.294;7.760;2023-04-15T12:23:56;99497.59;;;12.23;66.17
30021;BME280;16861;52.294;7.760;2023-04-15T12:26:30;99504.78;;;12.21;66.14
30021;BME280;16861;52.294;7.760;2023-04-15T12:29:01;99503.94;;;12.20;66.23
30021;BME280;16861;52.294;7.760;2023-04-15T12:31:28;99496.84;;;12.21;66.23
30021;BME280;16861;52.294;7.760;2023-04-15T12:33:56;99506.69;;;12.19;66.21
30021;BME280;16861;52.294;7.760;2023-04-15T12:36:24;99510.28;;;12.18;66.33
30021;BME280;16861;52.294;7.760;2023-04-15T12:38:50;99517.44;;;12.16;66.24
30021;BME280;16861;52.294;7.760;2023-04-15T12:41:17;99512.25;;;12.14;66.33
30021;BME280;16861;52.294;7.760;2023-04-15T12:43:44;99523.88;;;12.11;66.06
30021;BME280;16861;52.294;7.760;2023-04-15T12:46:12;99523.97;;;12.10;66.47
30021;BME280;16861;52.294;7.760;2023-04-15T12:48:39;99527.56;;;12.09;66.45
30021;BME280;16861;52.294;7.760;2023-04-15T12:51:06;99529.34;;;12.08;66.56
30021;BME280;16861;52.294;7.760;2023-04-15T12:53:33;99525.03;;;12.07;66.51
30021;BME280;16861;52.294;7.760;2023-04-15T12:55:59;99527.66;;;12.07;66.71
30021;BME280;16861;52.294;7.760;2023-04-15T12:58:26;99525.13;;;12.06;66.61
30021;BME280;16861;52.294;7.760;2023-04-15T13:00:53;99533.09;;;12.04;66.70
30021;BME280;16861;52.294;7.760;2023-04-15T13:03:19;99529.56;;;12.05;66.66
30021;BME280;16861;52.294;7.760;2023-04-15T13:05:46;99538.31;;;12.06;66.60
30021;BME280;16861;52.294;7.760;2023-04-15T13:08:12;99536.59;;;12.05;66.81
30021;BME280;16861;52.294;7.760;2023-04-15T13:10:39;99538.50;;;12.03;66.78
30021;BME280;16861;52.294;7.760;2023-04-15T13:13:07;99541.16;;;12.03;66.72
30021;BME280;16861;52.294;7.760;2023-04-15T13:15:34;99533.31;;;12.01;66.69
30021;BME280;16861;52.294;7.760;2023-04-15T13:18:00;99541.34;;;11.99;66.67
30021;BME280;16861;52.294;7.760;2023-04-15T13:20:27;99540.56;;;11.97;66.71
30021;BME280;16861;52.294;7.760;2023-04-15T13:22:53;99544.28;;;11.95;66.76
30021;BME280;16861;52.294;7.760;2023-04-15T13:25:20;99548.81;;;11.93;66.94
30021;BME280;16861;52.294;7.760;2023-04-15T13:27:47;99547.13;;;11.92;67.20
30021;BME280;16861;52.294;7.760;2023-04-15T13:30:13;99548.06;;;11.91;67.20
30021;BME280;16861;52.294;7.760;2023-04-15T13:32:39;99553.44;;;11.89;67.05